createdAt,value
2023-05-22T00:01:04.858Z,76.60
2023-05-22T00:03:33.243Z,76.60
2023-05-22T00:06:02.681Z,76.70
2023-05-22T00:08:31.062Z,76.70
2023-05-22T00:10:59.222Z,76.70
2023-05-22T00:13:27.240Z,76.80
2023-05-22T00:15:55.315Z,77.10
2023-05-22T00:18:23.372Z,77.40
2023-05-22T00:20:51.868Z,77.60
2023-05-22T00:23:21.906Z,77.70
2023-05-22T00:25:50.760Z,77.70
2023-05-22T00:28:18.835Z,77.70
2023-05-22T00:30:47.099Z,77.80
2023-05-22T00:33:15.172Z,77.80
2023-05-22T00:35:43.230Z,77.90
2023-05-22T00:38:27.832Z,77.90
2023-05-22T00:40:57.369Z,78.00
2023-05-22T00:43:25.724Z,78.10
2023-05-22T00:45:54.121Z,78.10
2023-05-22T00:48:22.222Z,78.10
2023-05-22T00:50:51.203Z,78.20
2023-05-22T00:53:22.034Z,78.30
2023-05-22T00:55:50.494Z,78.30
2023-05-22T00:58:21.685Z,78.40
2023-05-22T01:00:49.979Z,78.60
2023-05-22T01:03:19.467Z,78.70
2023-05-22T01:05:47.667Z,78.80
2023-05-22T01:08:15.747Z,78.90
2023-05-22T01:10:43.809Z,79.00
2023-05-22T01:13:21.292Z,79.00
2023-05-22T01:15:58.215Z,79.10
2023-05-22T01:18:32.969Z,79.30
2023-05-22T01:21:10.258Z,79.40
2023-05-22T01:24:16.148Z,79.40
2023-05-22T01:27:08.967Z,79.60
2023-05-22T01:29:47.344Z,79.80
2023-05-22T01:32:21.381Z,80.20
2023-05-22T01:34:55.272Z,80.40
2023-05-22T01:37:24.304Z,80.50
2023-05-22T01:39:54.447Z,80.50
2023-05-22T01:42:23.025Z,80.70
2023-05-22T01:44:51.174Z,80.90
2023-05-22T01:47:20.908Z,80.90
2023-05-22T01:49:49.139Z,80.90
2023-05-22T01:52:23.801Z,80.90
2023-05-22T01:54:58.311Z,80.80
2023-05-22T01:57:31.889Z,80.80
2023-05-22T02:00:07.323Z,80.70
2023-05-22T02:02:49.539Z,80.70
2023-05-22T02:05:21.864Z,80.70
2023-05-22T02:07:51.190Z,80.80
2023-05-22T02:10:21.117Z,80.90
2023-05-22T02:12:49.873Z,81.00
2023-05-22T02:15:18.152Z,81.10
2023-05-22T02:17:53.321Z,81.20
2023-05-22T02:20:21.736Z,81.20
2023-05-22T02:22:49.876Z,81.20
2023-05-22T02:25:18.067Z,81.20
2023-05-22T02:27:49.511Z,81.20
2023-05-22T02:30:17.797Z,81.30
2023-05-22T02:32:51.663Z,81.40
2023-05-22T02:35:19.989Z,81.60
2023-05-22T02:37:47.994Z,81.80
2023-05-22T02:40:16.116Z,81.90
2023-05-22T02:42:44.142Z,82.00
2023-05-22T02:45:14.187Z,82.10
2023-05-22T02:47:43.637Z,82.20
2023-05-22T02:50:14.735Z,82.20
2023-05-22T02:52:45.281Z,82.20
2023-05-22T02:55:13.355Z,82.30
2023-05-22T02:57:41.499Z,82.40
2023-05-22T03:00:11.710Z,82.50
2023-05-22T03:02:39.965Z,82.60
2023-05-22T03:05:08.633Z,82.60
2023-05-22T03:07:38.064Z,82.70
2023-05-22T03:10:07.344Z,82.90
2023-05-22T03:12:35.555Z,82.80
2023-05-22T03:15:03.617Z,82.80
2023-05-22T03:17:34.975Z,82.80
2023-05-22T03:20:03.825Z,82.80
2023-05-22T03:22:31.957Z,82.80
2023-05-22T03:25:01.634Z,82.80
2023-05-22T03:27:30.004Z,82.80
2023-05-22T03:29:58.188Z,82.80
2023-05-22T03:32:26.427Z,83.00
2023-05-22T03:34:55.168Z,83.10
2023-05-22T03:37:23.383Z,83.20
2023-05-22T03:39:51.434Z,83.40
2023-05-22T03:42:28.179Z,83.60
2023-05-22T03:44:57.470Z,83.70
2023-05-22T03:47:26.955Z,83.50
2023-05-22T03:49:54.975Z,83.40
2023-05-22T03:52:23.942Z,83.30
2023-05-22T03:54:53.497Z,83.30
2023-05-22T03:57:21.708Z,83.40
2023-05-22T03:59:51.348Z,83.50
2023-05-22T04:02:19.454Z,83.80
2023-05-22T04:04:47.519Z,83.80
2023-05-22T04:07:18.306Z,83.80
2023-05-22T04:09:46.481Z,83.90
2023-05-22T04:12:14.564Z,84.10
2023-05-22T04:14:43.932Z,84.20
2023-05-22T04:17:13.293Z,84.20
2023-05-22T04:19:41.422Z,84.10
2023-05-22T04:22:09.454Z,84.20
2023-05-22T04:24:39.714Z,84.10
2023-05-22T04:27:07.896Z,84.10
2023-05-22T04:29:36.386Z,84.10
2023-05-22T04:32:06.223Z,84.30
2023-05-22T04:34:37.760Z,84.40
2023-05-22T04:37:06.240Z,84.40
2023-05-22T04:39:34.363Z,84.30
2023-05-22T04:42:05.808Z,84.30
2023-05-22T04:44:34.597Z,84.30
2023-05-22T04:47:03.964Z,84.20
2023-05-22T04:49:33.710Z,84.20
2023-05-22T04:52:04.763Z,84.20
2023-05-22T04:54:32.890Z,84.20
2023-05-22T04:57:00.969Z,84.30
2023-05-22T04:59:29.089Z,84.30
2023-05-22T05:01:57.306Z,84.30
2023-05-22T05:04:26.071Z,84.40
2023-05-22T05:06:55.089Z,84.40
2023-05-22T05:09:24.844Z,84.20
2023-05-22T05:11:53.752Z,84.20
2023-05-22T05:14:21.830Z,84.20
2023-05-22T05:16:51.678Z,84.20
2023-05-22T05:19:21.483Z,84.10
2023-05-22T05:21:49.755Z,84.10
2023-05-22T05:24:18.429Z,84.10
2023-05-22T05:26:48.459Z,84.30
2023-05-22T05:29:18.606Z,84.50
2023-05-22T05:31:53.934Z,84.40
2023-05-22T05:34:40.533Z,84.20
2023-05-22T05:37:21.174Z,84.10
2023-05-22T05:39:49.976Z,84.10
2023-05-22T05:42:19.568Z,84.20
2023-05-22T05:44:49.265Z,83.90
2023-05-22T05:47:18.257Z,84.20
2023-05-22T05:49:46.586Z,84.60
2023-05-22T05:52:16.490Z,84.80
2023-05-22T05:54:47.469Z,84.70
2023-05-22T05:57:19.489Z,84.60
2023-05-22T05:59:47.696Z,84.70
2023-05-22T06:02:34.382Z,84.80
2023-05-22T06:05:05.053Z,85.10
2023-05-22T06:07:38.044Z,85.20
2023-05-22T06:10:08.343Z,85.20
2023-05-22T06:12:47.294Z,85.10
2023-05-22T06:15:16.436Z,84.80
2023-05-22T06:17:44.484Z,84.80
2023-05-22T06:20:14.241Z,84.70
2023-05-22T06:22:43.247Z,84.50
2023-05-22T06:25:11.510Z,84.30
2023-05-22T06:27:39.555Z,84.40
2023-05-22T06:30:10.386Z,84.40
2023-05-22T06:32:40.738Z,84.80
2023-05-22T06:35:10.753Z,84.70
2023-05-22T06:37:42.206Z,84.90
2023-05-22T06:40:11.674Z,84.70
2023-05-22T06:42:50.213Z,84.80
2023-05-22T06:45:34.476Z,84.90
2023-05-22T06:48:20.866Z,85.00
2023-05-22T06:51:00.429Z,85.00
2023-05-22T06:53:28.530Z,84.80
2023-05-22T06:55:57.072Z,84.70
2023-05-22T06:58:38.661Z,84.50
2023-05-22T07:01:08.972Z,84.30
2023-05-22T07:03:42.497Z,84.00
2023-05-22T07:06:39.155Z,84.10
2023-05-22T07:09:08.397Z,84.30
2023-05-22T07:11:36.613Z,84.30
2023-05-22T07:14:05.005Z,84.60
2023-05-22T07:16:34.408Z,84.70
2023-05-22T07:19:03.455Z,84.70
2023-05-22T07:21:31.989Z,84.50
2023-05-22T07:24:00.226Z,84.10
2023-05-22T07:26:29.893Z,84.10
2023-05-22T07:29:05.833Z,84.40
2023-05-22T07:31:35.479Z,84.40
2023-05-22T07:34:03.718Z,84.40
2023-05-22T07:36:31.912Z,84.40
2023-05-22T07:38:59.969Z,84.20
2023-05-22T07:41:28.353Z,84.60
2023-05-22T07:43:56.710Z,85.00
2023-05-22T07:46:29.469Z,85.00
2023-05-22T07:49:10.901Z,85.00
2023-05-22T07:51:41.981Z,85.40
2023-05-22T07:54:11.012Z,85.70
2023-05-22T07:56:42.473Z,85.80
2023-05-22T07:59:12.127Z,86.30
2023-05-22T08:01:41.767Z,86.80
2023-05-22T08:04:11.424Z,87.00
2023-05-22T08:06:39.990Z,86.50
2023-05-22T08:09:08.106Z,86.30
2023-05-22T08:11:39.051Z,86.20
2023-05-22T08:14:07.920Z,86.60
2023-05-22T08:16:36.044Z,87.20
2023-05-22T08:19:04.836Z,87.30
2023-05-22T08:21:34.611Z,87.40
2023-05-22T08:24:03.049Z,87.10
2023-05-22T08:26:33.193Z,87.00
2023-05-22T08:29:01.690Z,87.00
2023-05-22T08:31:30.080Z,86.80
2023-05-22T08:34:02.145Z,87.10
2023-05-22T08:36:33.829Z,87.50
2023-05-22T08:39:03.667Z,88.90
2023-05-22T08:41:31.746Z,89.10
2023-05-22T08:43:59.877Z,88.80
2023-05-22T08:46:29.201Z,88.70
2023-05-22T08:48:58.821Z,89.50
2023-05-22T08:51:31.328Z,89.00
2023-05-22T08:54:00.510Z,88.60
2023-05-22T08:56:32.169Z,89.50
2023-05-22T08:59:02.093Z,89.50
2023-05-22T09:01:30.461Z,88.80
2023-05-22T09:04:01.782Z,88.90
2023-05-22T09:06:30.258Z,89.30
2023-05-22T09:08:58.704Z,89.00
2023-05-22T09:11:27.147Z,88.40
2023-05-22T09:14:07.995Z,88.20
2023-05-22T09:16:46.106Z,89.30
2023-05-22T09:19:14.809Z,89.20
2023-05-22T09:21:44.458Z,88.40
2023-05-22T09:24:13.160Z,87.80
2023-05-22T09:26:41.453Z,88.10
2023-05-22T09:29:11.112Z,88.30
2023-05-22T09:31:43.806Z,88.60
2023-05-22T09:34:14.259Z,88.20
2023-05-22T09:36:42.703Z,87.70
2023-05-22T09:39:10.946Z,87.00
2023-05-22T09:41:40.882Z,87.30
2023-05-22T09:44:15.456Z,87.60
2023-05-22T09:46:45.346Z,87.30
2023-05-22T09:49:16.384Z,87.20
2023-05-22T09:51:48.589Z,86.70
2023-05-22T09:54:18.035Z,87.20
2023-05-22T09:56:50.157Z,87.10
2023-05-22T09:59:23.503Z,87.40
2023-05-22T10:01:52.032Z,88.00
2023-05-22T10:04:22.828Z,88.10
2023-05-22T10:06:53.870Z,87.50
2023-05-22T10:09:24.818Z,87.50
2023-05-22T10:11:57.562Z,87.00
2023-05-22T10:14:29.024Z,86.60
2023-05-22T10:17:02.067Z,86.20
2023-05-22T10:19:32.909Z,86.20
2023-05-22T10:22:02.426Z,86.60
2023-05-22T10:24:30.884Z,87.20
2023-05-22T10:27:00.241Z,87.20
2023-05-22T10:29:39.261Z,87.00
2023-05-22T10:32:15.910Z,85.50
2023-05-22T10:34:58.485Z,85.30
2023-05-22T10:37:48.219Z,86.20
2023-05-22T10:40:22.647Z,85.50
2023-05-22T10:42:50.881Z,85.60
2023-05-22T10:45:20.433Z,85.00
2023-05-22T10:47:48.564Z,84.80
2023-05-22T10:50:19.098Z,85.10
2023-05-22T10:52:48.551Z,84.40
2023-05-22T10:55:16.625Z,84.80
2023-05-22T10:57:44.717Z,85.00
2023-05-22T11:00:16.204Z,84.20
2023-05-22T11:02:49.902Z,84.00
2023-05-22T11:05:36.400Z,83.90
2023-05-22T11:08:11.472Z,83.40
2023-05-22T11:10:56.021Z,83.00
2023-05-22T11:13:29.021Z,81.80
2023-05-22T11:15:57.840Z,82.50
2023-05-22T11:18:30.009Z,82.90
2023-05-22T11:21:00.287Z,83.10
2023-05-22T11:23:28.489Z,83.80
2023-05-22T11:25:56.582Z,84.20
2023-05-22T11:28:25.513Z,84.00
2023-05-22T11:30:54.913Z,84.10
2023-05-22T11:33:24.530Z,84.50
2023-05-22T11:35:54.949Z,83.50
2023-05-22T11:38:23.226Z,83.50
2023-05-22T11:40:53.175Z,83.60
2023-05-22T11:43:31.443Z,83.30
2023-05-22T11:46:02.686Z,82.60
2023-05-22T11:48:30.821Z,82.30
2023-05-22T11:51:00.581Z,82.00
2023-05-22T11:53:28.669Z,81.70
2023-05-22T11:55:56.669Z,81.40
2023-05-22T11:58:28.725Z,81.50
2023-05-22T12:01:00.410Z,82.00
2023-05-22T12:03:28.530Z,82.50
2023-05-22T12:05:57.420Z,82.90
2023-05-22T12:08:27.400Z,82.70
2023-05-22T12:10:55.813Z,82.30
2023-05-22T12:13:27.928Z,82.50
2023-05-22T12:16:00.198Z,82.10
2023-05-22T12:18:28.470Z,81.80
2023-05-22T12:20:56.997Z,82.20
2023-05-22T12:23:27.531Z,82.80
2023-05-22T12:26:03.468Z,83.10
2023-05-22T12:28:33.552Z,82.30
2023-05-22T12:31:01.722Z,81.70
2023-05-22T12:33:30.331Z,82.30
2023-05-22T12:35:59.347Z,82.30
2023-05-22T12:38:30.769Z,81.80
2023-05-22T12:41:00.183Z,82.30
2023-05-22T12:43:28.153Z,82.40
2023-05-22T12:45:56.182Z,81.60
2023-05-22T12:48:24.248Z,82.10
2023-05-22T12:50:52.337Z,82.70
2023-05-22T12:53:20.752Z,82.60
2023-05-22T12:55:50.179Z,81.70
2023-05-22T12:58:18.244Z,82.20
2023-05-22T13:00:46.308Z,81.80
2023-05-22T13:03:14.457Z,81.70
2023-05-22T13:05:42.826Z,81.30
2023-05-22T13:08:11.112Z,81.20
2023-05-22T13:10:39.138Z,80.70
2023-05-22T13:13:08.673Z,81.10
2023-05-22T13:15:36.650Z,81.40
2023-05-22T13:18:04.840Z,82.00
2023-05-22T13:20:32.980Z,80.80
2023-05-22T13:23:01.062Z,80.40
2023-05-22T13:25:29.297Z,81.40
2023-05-22T13:27:57.345Z,81.30
2023-05-22T13:30:27.052Z,80.40
2023-05-22T13:32:55.466Z,80.50
2023-05-22T13:35:23.646Z,81.10
2023-05-22T13:37:51.770Z,81.30
2023-05-22T13:40:20.173Z,81.10
2023-05-22T13:42:48.236Z,80.40
2023-05-22T13:45:16.290Z,80.60
2023-05-22T13:47:46.132Z,80.50
2023-05-22T13:50:14.299Z,80.30
2023-05-22T13:52:42.325Z,79.80
2023-05-22T13:55:10.899Z,79.10
2023-05-22T13:57:40.440Z,79.60
2023-05-22T14:00:10.049Z,79.20
2023-05-22T14:02:38.520Z,79.40
2023-05-22T14:05:09.334Z,78.60
2023-05-22T14:07:37.500Z,77.90
2023-05-22T14:10:06.732Z,77.50
2023-05-22T14:12:34.980Z,76.90
2023-05-22T14:15:03.161Z,77.70
2023-05-22T14:17:31.263Z,77.70
2023-05-22T14:19:59.838Z,77.90
2023-05-22T14:22:29.202Z,78.00
2023-05-22T14:24:57.320Z,77.20
2023-05-22T14:27:25.373Z,76.60
2023-05-22T14:29:53.453Z,76.90
2023-05-22T14:32:21.561Z,77.00
2023-05-22T14:34:49.571Z,76.60
2023-05-22T14:37:18.948Z,75.80
2023-05-22T14:39:48.554Z,75.30
2023-05-22T14:42:16.681Z,74.40
2023-05-22T14:44:44.817Z,73.30
2023-05-22T14:47:13.194Z,73.30
2023-05-22T14:49:41.273Z,71.80
2023-05-22T14:52:09.386Z,71.10
2023-05-22T14:54:37.403Z,69.20
2023-05-22T14:57:07.218Z,66.30
2023-05-22T14:59:35.267Z,67.30
2023-05-22T15:02:03.444Z,68.60
2023-05-22T15:04:31.753Z,67.90
2023-05-22T15:06:59.797Z,67.80
2023-05-22T15:09:27.850Z,67.80
2023-05-22T15:11:55.935Z,66.80
2023-05-22T15:14:25.477Z,66.60
2023-05-22T15:16:53.901Z,67.30
2023-05-22T15:19:22.132Z,67.40
2023-05-22T15:21:50.610Z,67.10
2023-05-22T15:24:18.709Z,66.70
2023-05-22T15:26:46.925Z,66.20
2023-05-22T15:29:14.968Z,65.30
2023-05-22T15:31:44.637Z,65.70
2023-05-22T15:34:12.708Z,66.70
2023-05-22T15:36:41.087Z,66.00
2023-05-22T15:39:09.198Z,64.40
2023-05-22T15:41:37.607Z,64.10
2023-05-22T15:44:05.868Z,64.90
2023-05-22T15:46:33.967Z,65.20
2023-05-22T15:49:03.377Z,66.20
2023-05-22T15:51:32.670Z,67.10
2023-05-22T15:54:00.737Z,66.40
2023-05-22T15:56:28.798Z,66.10
2023-05-22T15:58:56.815Z,65.90
2023-05-22T16:01:24.916Z,65.30
2023-05-22T16:03:53.019Z,65.50
2023-05-22T16:06:23.316Z,66.10
2023-05-22T16:08:51.371Z,66.30
2023-05-22T16:11:19.529Z,65.80
2023-05-22T16:13:47.826Z,65.10
2023-05-22T16:16:17.388Z,65.30
2023-05-22T16:18:45.472Z,65.90
2023-05-22T16:21:13.484Z,66.80
2023-05-22T16:23:42.900Z,68.50
2023-05-22T16:26:10.945Z,70.00
2023-05-22T16:28:39.054Z,70.50
2023-05-22T16:31:07.248Z,70.90
2023-05-22T16:33:37.522Z,72.00
2023-05-22T16:36:06.246Z,73.20
2023-05-22T16:38:34.367Z,72.50
2023-05-22T16:41:03.853Z,72.20
2023-05-22T16:43:31.960Z,72.50
2023-05-22T16:46:00.204Z,72.60
2023-05-22T16:48:28.423Z,72.50
2023-05-22T16:50:56.593Z,72.80
2023-05-22T16:53:24.729Z,73.20
2023-05-22T16:55:52.966Z,72.80
2023-05-22T16:58:22.386Z,72.40
2023-05-22T17:00:50.608Z,72.80
2023-05-22T17:03:18.783Z,73.10
2023-05-22T17:05:47.611Z,72.80
2023-05-22T17:08:15.810Z,73.70
2023-05-22T17:10:43.989Z,73.40
2023-05-22T17:13:19.554Z,72.30
2023-05-22T17:15:49.530Z,72.30
2023-05-22T17:18:20.923Z,72.80
2023-05-22T17:20:49.537Z,73.50
2023-05-22T17:23:18.386Z,73.80
2023-05-22T17:25:46.976Z,73.80
2023-05-22T17:28:15.636Z,73.80
2023-05-22T17:30:45.224Z,73.90
2023-05-22T17:33:14.957Z,73.40
2023-05-22T17:35:43.125Z,72.60
2023-05-22T17:38:11.229Z,72.80
2023-05-22T17:40:45.702Z,73.70
2023-05-22T17:43:14.994Z,73.30
2023-05-22T17:45:44.484Z,72.30
2023-05-22T17:48:15.842Z,72.00
2023-05-22T17:50:43.980Z,71.50
2023-05-22T17:53:13.467Z,71.30
2023-05-22T17:55:41.561Z,70.60
2023-05-22T17:58:09.781Z,69.60
2023-05-22T18:00:37.927Z,69.00
2023-05-22T18:03:07.658Z,67.80
2023-05-22T18:05:37.374Z,67.60
2023-05-22T18:08:05.952Z,66.80
2023-05-22T18:10:33.997Z,66.40
2023-05-22T18:13:02.212Z,67.20
2023-05-22T18:15:30.517Z,67.00
2023-05-22T18:17:58.620Z,67.20
2023-05-22T18:20:26.710Z,66.90
2023-05-22T18:22:56.164Z,66.10
2023-05-22T18:25:24.332Z,66.10
2023-05-22T18:27:52.529Z,66.60
2023-05-22T18:30:20.584Z,67.00
2023-05-22T18:32:48.761Z,67.30
2023-05-22T18:35:16.880Z,68.40
2023-05-22T18:37:45.071Z,69.30
2023-05-22T18:40:15.323Z,69.90
2023-05-22T18:42:43.956Z,70.50
2023-05-22T18:45:12.447Z,71.00
2023-05-22T18:47:40.584Z,71.90
2023-05-22T18:50:09.404Z,72.50
2023-05-22T18:52:40.049Z,73.30
2023-05-22T18:55:08.748Z,73.80
2023-05-22T18:57:38.131Z,74.10
2023-05-22T19:00:08.101Z,74.50
2023-05-22T19:02:36.399Z,74.60
2023-05-22T19:05:05.130Z,75.00
2023-05-22T19:07:33.274Z,75.70
2023-05-22T19:10:01.437Z,75.90
2023-05-22T19:12:31.678Z,75.90
2023-05-22T19:15:01.207Z,76.10
2023-05-22T19:17:29.366Z,76.20
2023-05-22T19:19:57.414Z,76.30
2023-05-22T19:22:25.600Z,76.40
2023-05-22T19:24:53.547Z,76.40
2023-05-22T19:27:21.675Z,76.40
2023-05-22T19:29:49.912Z,76.70
2023-05-22T19:32:19.253Z,76.80
2023-05-22T19:34:47.603Z,76.90
2023-05-22T19:37:15.731Z,77.40
2023-05-22T19:39:43.834Z,77.60
2023-05-22T19:42:12.270Z,78.00
2023-05-22T19:44:40.355Z,78.40
2023-05-22T19:47:08.845Z,78.40
2023-05-22T19:49:38.312Z,78.40
2023-05-22T19:52:07.280Z,78.40
2023-05-22T19:54:35.627Z,78.20
2023-05-22T19:57:04.034Z,78.30
2023-05-22T19:59:33.225Z,78.20
2023-05-22T20:02:02.308Z,78.10
2023-05-22T20:04:31.533Z,78.00
2023-05-22T20:07:02.357Z,78.00
2023-05-22T20:09:30.532Z,78.10
2023-05-22T20:11:58.722Z,78.40
2023-05-22T20:14:26.854Z,78.60
2023-05-22T20:16:55.287Z,78.60
2023-05-22T20:19:25.506Z,79.00
2023-05-22T20:21:53.688Z,79.30
2023-05-22T20:24:25.113Z,79.40
2023-05-22T20:26:53.841Z,80.00
2023-05-22T20:29:21.856Z,80.20
2023-05-22T20:31:51.165Z,80.60
2023-05-22T20:34:20.558Z,80.40
2023-05-22T20:36:48.615Z,80.30
2023-05-22T20:39:18.089Z,79.60
2023-05-22T20:41:49.648Z,79.60
2023-05-22T20:44:19.172Z,79.50
2023-05-22T20:46:47.215Z,79.10
2023-05-22T20:49:16.130Z,78.60
2023-05-22T20:51:44.433Z,78.70
2023-05-22T20:54:12.467Z,79.00
2023-05-22T20:56:40.624Z,79.20
2023-05-22T20:59:10.123Z,79.10
2023-05-22T21:01:38.368Z,79.30
2023-05-22T21:04:06.532Z,79.00
2023-05-22T21:06:34.738Z,78.90
2023-05-22T21:09:02.889Z,78.80
2023-05-22T21:11:30.929Z,79.20
2023-05-22T21:13:58.962Z,79.40
2023-05-22T21:16:28.422Z,79.70
2023-05-22T21:18:56.571Z,79.30
2023-05-22T21:21:24.656Z,79.00
2023-05-22T21:23:52.921Z,79.10
2023-05-22T21:26:22.350Z,78.90
2023-05-22T21:28:50.694Z,78.90
2023-05-22T21:31:18.941Z,79.00
2023-05-22T21:33:48.373Z,79.40
2023-05-22T21:36:16.694Z,79.50
2023-05-22T21:38:44.863Z,79.30
2023-05-22T21:41:13.033Z,79.00
2023-05-22T21:43:41.177Z,78.80
2023-05-22T21:46:09.353Z,79.20
2023-05-22T21:48:37.450Z,79.10
2023-05-22T21:51:07.225Z,79.30
2023-05-22T21:53:35.240Z,78.80
2023-05-22T21:56:03.266Z,79.30
2023-05-22T21:58:31.356Z,79.10
2023-05-22T22:00:59.376Z,79.10
2023-05-22T22:03:27.511Z,78.90
2023-05-22T22:05:55.641Z,78.80
2023-05-22T22:08:27.106Z,78.90
2023-05-22T22:10:55.306Z,78.90
2023-05-22T22:13:23.434Z,78.90
2023-05-22T22:15:51.710Z,78.70
2023-05-22T22:18:19.786Z,78.60
2023-05-22T22:20:50.174Z,79.00
2023-05-22T22:23:18.374Z,79.10
2023-05-22T22:25:48.011Z,79.30
2023-05-22T22:28:16.051Z,79.50
2023-05-22T22:30:44.170Z,79.90
2023-05-22T22:33:12.848Z,80.10
2023-05-22T22:35:42.167Z,79.90
2023-05-22T22:38:10.555Z,80.20
2023-05-22T22:40:38.655Z,80.50
2023-05-22T22:43:08.155Z,80.60
2023-05-22T22:45:36.219Z,80.80
2023-05-22T22:48:05.751Z,80.90
2023-05-22T22:50:33.945Z,80.80
2023-05-22T22:53:01.956Z,80.90
2023-05-22T22:55:30.283Z,81.00
2023-05-22T22:57:59.469Z,81.10
2023-05-22T23:00:29.212Z,81.60
2023-05-22T23:02:57.396Z,81.20
2023-05-22T23:05:25.587Z,80.90
2023-05-22T23:07:53.678Z,81.70
2023-05-22T23:10:22.378Z,81.60
2023-05-22T23:12:50.350Z,81.50
2023-05-22T23:15:18.534Z,81.20
2023-05-22T23:17:50.160Z,81.10
2023-05-22T23:20:19.738Z,81.40
2023-05-22T23:22:47.762Z,81.50
2023-05-22T23:25:15.737Z,81.80
2023-05-22T23:27:43.984Z,82.60
2023-05-22T23:30:12.973Z,83.30
2023-05-22T23:32:41.038Z,83.70
2023-05-22T23:35:11.213Z,83.70
2023-05-22T23:37:39.227Z,83.60
2023-05-22T23:40:08.800Z,83.60
2023-05-22T23:42:37.448Z,83.30
2023-05-22T23:45:06.189Z,83.40
2023-05-22T23:47:34.229Z,83.70
2023-05-22T23:50:02.353Z,84.40
2023-05-22T23:52:32.103Z,85.30
2023-05-22T23:55:00.730Z,85.60
2023-05-22T23:57:28.939Z,85.60
2023-05-22T23:59:56.945Z,86.60
